TAF KFSD
KFSD 090520Z 0906/1006 15013G21KT P6SM OVC200 WS010/19045KT FM091000 16008KT P6SM BKN200 WS010/21035KT FM091100 17006KT P6SM BKN250 FM091600 31010G22KT P6SM SCT250 FM100000 33007KT P6SM SCT250=
METAR KFSD
WC KFSD
WS KFSD
WV KFSD